createdAt,value
2019-03-22T00:02:15.303Z,102885.45
2019-03-22T00:07:19.920Z,102882.45
2019-03-22T00:12:24.491Z,102871.27
2019-03-22T00:17:29.072Z,102877.47
2019-03-22T00:22:33.998Z,102880.52
2019-03-22T00:27:38.568Z,102871.81
2019-03-22T00:32:44.038Z,102887.93
2019-03-22T00:37:48.699Z,102885.73
2019-03-22T00:42:53.217Z,102890.16
2019-03-22T00:47:57.822Z,102878.86
2019-03-22T00:53:02.449Z,102881.38
2019-03-22T00:58:07.027Z,102879.25
2019-03-22T01:03:11.600Z,102881.17
2019-03-22T01:08:16.194Z,102874.23
2019-03-22T01:13:20.817Z,102873.31
2019-03-22T01:18:27.243Z,102862.55
2019-03-22T01:23:31.827Z,102854.39
2019-03-22T01:28:36.470Z,102869.53
2019-03-22T01:33:41.090Z,102861.94
2019-03-22T01:38:45.758Z,102860.31
2019-03-22T01:43:50.308Z,102852.89
2019-03-22T01:48:56.516Z,102862.83
2019-03-22T01:54:01.470Z,102847.89
2019-03-22T01:59:06.112Z,102858.20
2019-03-22T02:04:10.663Z,102854.58
2019-03-22T02:09:15.255Z,102842.95
2019-03-22T02:14:20.137Z,102837.48
2019-03-22T02:19:24.743Z,102837.26
2019-03-22T02:24:29.282Z,102831.89
2019-03-22T02:29:34.166Z,102829.95
2019-03-22T02:34:38.692Z,102834.09
2019-03-22T02:39:43.517Z,102834.72
2019-03-22T02:44:48.160Z,102832.61
2019-03-22T02:49:52.793Z,102845.66
2019-03-22T02:54:57.728Z,102835.05
2019-03-22T03:00:03.524Z,102836.14
2019-03-22T03:05:08.519Z,102830.13
2019-03-22T03:10:13.305Z,102831.44
2019-03-22T03:15:17.901Z,102841.25
2019-03-22T03:20:22.488Z,102849.22
2019-03-22T03:25:27.869Z,102863.94
2019-03-22T03:30:32.541Z,102869.39
2019-03-22T03:35:37.178Z,102863.31
2019-03-22T03:40:41.724Z,102884.81
2019-03-22T03:45:46.680Z,102884.08
2019-03-22T03:50:51.541Z,102900.18
2019-03-22T03:55:56.131Z,102898.61
2019-03-22T04:01:00.749Z,102892.66
2019-03-22T04:06:05.589Z,102891.40
2019-03-22T04:11:10.135Z,102890.69
2019-03-22T04:16:14.783Z,102885.84
2019-03-22T04:21:19.353Z,102892.48
2019-03-22T04:26:24.058Z,102902.67
2019-03-22T04:31:28.585Z,102896.17
2019-03-22T04:36:33.281Z,102905.22
2019-03-22T04:41:37.923Z,102908.09
2019-03-22T04:46:44.648Z,102908.70
2019-03-22T04:51:49.942Z,102907.27
2019-03-22T04:56:56.223Z,102905.22
2019-03-22T05:02:02.328Z,102901.19
2019-03-22T05:07:07.683Z,102913.07
2019-03-22T05:12:15.224Z,102923.16
2019-03-22T05:17:20.919Z,102913.28
2019-03-22T05:22:28.080Z,102920.53
2019-03-22T05:27:36.176Z,102926.62
2019-03-22T05:32:40.804Z,102914.08
2019-03-22T05:37:45.414Z,102922.76
2019-03-22T05:42:49.998Z,102935.40
2019-03-22T05:47:54.619Z,102952.45
2019-03-22T05:52:59.204Z,102949.39
2019-03-22T05:58:03.789Z,102941.55
2019-03-22T06:03:08.469Z,102946.53
2019-03-22T06:08:13.099Z,102945.33
2019-03-22T06:13:17.743Z,102950.48
2019-03-22T06:18:22.381Z,102953.70
2019-03-22T06:23:27.224Z,102957.66
2019-03-22T06:28:31.848Z,102966.70
2019-03-22T06:33:36.455Z,102964.70
2019-03-22T06:38:41.316Z,102964.82
2019-03-22T06:43:45.902Z,102980.55
2019-03-22T06:48:50.696Z,102976.16
2019-03-22T06:53:55.327Z,102969.89
2019-03-22T06:59:00.755Z,102970.86
2019-03-22T07:04:05.459Z,102978.00
2019-03-22T07:09:10.320Z,102987.44
2019-03-22T07:14:15.296Z,102998.47
2019-03-22T07:19:19.888Z,103008.45
2019-03-22T07:24:25.023Z,102999.31
2019-03-22T07:29:31.086Z,102998.91
2019-03-22T07:34:36.020Z,102998.70
2019-03-22T07:39:40.716Z,102990.38
2019-03-22T07:44:45.252Z,103005.70
2019-03-22T07:49:49.987Z,102998.02
2019-03-22T07:54:54.607Z,103009.98
2019-03-22T07:59:59.195Z,102999.50
2019-03-22T08:05:04.280Z,102999.50
2019-03-22T08:10:08.897Z,103003.02
2019-03-22T08:15:25.579Z,102992.63
2019-03-22T08:20:30.395Z,102990.38
2019-03-22T08:25:34.957Z,102997.96
2019-03-22T08:30:43.342Z,102986.29
2019-03-22T08:35:45.868Z,102990.73
2019-03-22T08:40:50.460Z,102986.13
2019-03-22T08:45:55.028Z,102979.52
2019-03-22T08:50:59.651Z,102976.84
2019-03-22T08:56:04.207Z,102981.55
2019-03-22T09:01:08.763Z,102989.41
2019-03-22T09:06:13.400Z,102987.77
2019-03-22T09:11:18.313Z,102979.81
2019-03-22T09:16:22.917Z,102985.83
2019-03-22T09:21:27.757Z,103002.41
2019-03-22T09:26:32.448Z,102988.91
2019-03-22T09:31:37.076Z,102989.84
2019-03-22T09:36:41.761Z,102988.31
2019-03-22T09:41:46.811Z,102988.12
2019-03-22T09:46:51.371Z,102970.64
2019-03-22T09:51:55.955Z,102969.42
2019-03-22T09:57:00.507Z,102961.61
2019-03-22T10:02:05.759Z,102964.91
2019-03-22T10:07:11.943Z,102968.70
2019-03-22T10:12:16.524Z,102961.63
2019-03-22T10:17:21.072Z,102967.81
2019-03-22T10:22:25.702Z,102966.78
2019-03-22T10:27:30.608Z,102968.13
2019-03-22T10:32:35.199Z,102964.35
2019-03-22T10:37:40.174Z,102965.97
2019-03-22T10:42:45.059Z,102957.35
2019-03-22T10:47:49.779Z,102950.09
2019-03-22T10:52:54.354Z,102953.59
2019-03-22T10:57:58.949Z,102950.63
2019-03-22T11:03:03.832Z,102947.66
2019-03-22T11:08:08.528Z,102949.28
2019-03-22T11:13:13.118Z,102941.65
2019-03-22T11:18:17.725Z,102936.36
2019-03-22T11:23:22.313Z,102928.00
2019-03-22T11:28:26.873Z,102931.14
2019-03-22T11:33:31.597Z,102923.85
2019-03-22T11:38:36.580Z,102908.75
2019-03-22T11:43:41.144Z,102893.27
2019-03-22T11:48:45.730Z,102883.33
2019-03-22T11:53:50.300Z,102882.20
2019-03-22T11:58:54.930Z,102875.91
2019-03-22T12:03:59.830Z,102860.91
2019-03-22T12:09:08.307Z,102862.92
2019-03-22T12:14:13.243Z,102854.88
2019-03-22T12:19:17.856Z,102859.08
2019-03-22T12:24:22.458Z,102852.89
2019-03-22T12:29:27.081Z,102845.81
2019-03-22T12:34:31.751Z,102845.46
2019-03-22T12:39:36.404Z,102836.02
2019-03-22T12:44:40.968Z,102831.43
2019-03-22T12:49:45.534Z,102824.80
2019-03-22T12:54:50.188Z,102821.39
2019-03-22T12:59:55.169Z,102814.56
2019-03-22T13:04:59.774Z,102815.34
2019-03-22T13:10:05.611Z,102804.53
2019-03-22T13:15:10.432Z,102800.49
2019-03-22T13:20:15.803Z,102801.77
2019-03-22T13:25:21.267Z,102797.52
2019-03-22T13:30:34.024Z,102785.84
2019-03-22T13:35:38.732Z,102782.66
2019-03-22T13:40:43.305Z,102764.09
2019-03-22T13:45:48.424Z,102764.19
2019-03-22T13:50:53.392Z,102757.30
2019-03-22T13:55:58.069Z,102752.80
2019-03-22T14:01:02.851Z,102745.26
2019-03-22T14:06:07.483Z,102731.94
2019-03-22T14:11:12.524Z,102731.56
2019-03-22T14:16:17.100Z,102731.89
2019-03-22T14:21:22.045Z,102720.62
2019-03-22T14:26:26.794Z,102708.84
2019-03-22T14:31:31.719Z,102699.30
2019-03-22T14:36:36.293Z,102693.70
2019-03-22T14:41:40.939Z,102695.36
2019-03-22T14:46:45.592Z,102687.13
2019-03-22T14:51:50.170Z,102687.13
2019-03-22T14:56:55.114Z,102677.31
2019-03-22T15:01:59.718Z,102670.98
2019-03-22T15:07:04.498Z,102664.46
2019-03-22T15:12:09.081Z,102663.03
2019-03-22T15:17:14.073Z,102658.88
2019-03-22T15:22:18.661Z,102660.55
2019-03-22T15:27:23.300Z,102669.12
2019-03-22T15:32:27.867Z,102658.00
2019-03-22T15:37:32.909Z,102652.50
2019-03-22T15:42:37.779Z,102641.41
2019-03-22T15:47:42.744Z,102649.12
2019-03-22T15:52:47.390Z,102641.75
2019-03-22T15:57:52.527Z,102639.83
2019-03-22T16:02:57.225Z,102641.61
2019-03-22T16:08:01.822Z,102630.85
2019-03-22T16:13:06.568Z,102632.23
2019-03-22T16:18:11.212Z,102643.59
2019-03-22T16:23:15.846Z,102637.60
2019-03-22T16:28:21.716Z,102637.98
2019-03-22T16:33:26.355Z,102639.98
2019-03-22T16:38:33.465Z,102636.06
2019-03-22T16:43:38.185Z,102624.56
2019-03-22T16:48:43.379Z,102629.45
2019-03-22T16:53:53.689Z,102624.55
2019-03-22T16:58:58.703Z,102629.69
2019-03-22T17:04:04.619Z,102625.02
2019-03-22T17:09:09.514Z,102623.06
2019-03-22T17:14:15.418Z,102616.58
2019-03-22T17:19:19.954Z,102611.34
2019-03-22T17:24:24.640Z,102610.47
2019-03-22T17:29:29.221Z,102611.16
2019-03-22T17:34:34.728Z,102609.74
2019-03-22T17:39:39.374Z,102616.75
2019-03-22T17:44:43.931Z,102615.63
2019-03-22T17:49:48.737Z,102605.07
2019-03-22T17:54:53.601Z,102606.13
2019-03-22T17:59:58.324Z,102601.05
2019-03-22T18:05:03.008Z,102598.52
2019-03-22T18:10:08.059Z,102596.52
2019-03-22T18:15:12.922Z,102590.80
2019-03-22T18:20:17.554Z,102595.13
2019-03-22T18:25:22.167Z,102598.01
2019-03-22T18:30:26.790Z,102595.03
2019-03-22T18:35:31.435Z,102599.30
2019-03-22T18:40:36.118Z,102594.51
2019-03-22T18:45:40.778Z,102588.64
2019-03-22T18:50:56.062Z,102580.80
2019-03-22T18:55:53.123Z,102569.09
2019-03-22T19:00:57.847Z,102568.06
2019-03-22T19:06:03.060Z,102573.63
2019-03-22T19:11:07.735Z,102577.30
2019-03-22T19:16:12.454Z,102574.38
2019-03-22T19:21:17.317Z,102572.43
2019-03-22T19:26:22.069Z,102565.03
2019-03-22T19:31:26.778Z,102563.64
2019-03-22T19:36:31.589Z,102567.05
2019-03-22T19:41:36.301Z,102560.16
2019-03-22T19:46:40.885Z,102559.59
2019-03-22T19:51:45.488Z,102548.91
2019-03-22T19:56:50.146Z,102544.31
2019-03-22T20:01:54.733Z,102548.73
2019-03-22T20:06:59.370Z,102539.53
2019-03-22T20:12:04.105Z,102536.30
2019-03-22T20:17:08.961Z,102530.58
2019-03-22T20:22:13.703Z,102533.20
2019-03-22T20:27:18.337Z,102533.07
2019-03-22T20:32:22.974Z,102538.36
2019-03-22T20:37:27.580Z,102534.22
2019-03-22T20:42:32.288Z,102534.19
2019-03-22T20:47:36.920Z,102531.18
2019-03-22T20:52:41.594Z,102530.36
2019-03-22T20:57:46.446Z,102529.14
2019-03-22T21:02:51.663Z,102526.20
2019-03-22T21:07:56.510Z,102526.50
2019-03-22T21:13:01.564Z,102528.59
2019-03-22T21:18:06.329Z,102522.51
2019-03-22T21:23:10.958Z,102524.20
2019-03-22T21:28:15.567Z,102516.89
2019-03-22T21:33:20.439Z,102509.22
2019-03-22T21:38:25.064Z,102501.53
2019-03-22T21:43:29.660Z,102495.19
2019-03-22T21:48:34.274Z,102494.22
2019-03-22T21:53:41.585Z,102488.70
2019-03-22T21:58:46.184Z,102477.70
2019-03-22T22:03:50.763Z,102479.27
2019-03-22T22:08:55.409Z,102469.98
2019-03-22T22:14:00.067Z,102458.39
2019-03-22T22:19:04.775Z,102456.17
2019-03-22T22:24:09.938Z,102451.67
2019-03-22T22:29:14.831Z,102442.20
2019-03-22T22:34:19.594Z,102442.66
2019-03-22T22:39:24.187Z,102432.32
2019-03-22T22:44:29.001Z,102421.60
2019-03-22T22:49:33.904Z,102402.95
2019-03-22T22:54:41.127Z,102399.95
2019-03-22T22:59:45.690Z,102393.02
2019-03-22T23:04:51.636Z,102389.70
2019-03-22T23:09:56.300Z,102377.48
2019-03-22T23:15:00.889Z,102378.93
2019-03-22T23:20:07.049Z,102366.64
2019-03-22T23:25:12.058Z,102360.78
2019-03-22T23:30:16.719Z,102356.98
2019-03-22T23:35:22.281Z,102355.36
2019-03-22T23:40:26.898Z,102345.88
2019-03-22T23:45:32.045Z,102341.22
2019-03-22T23:50:36.905Z,102339.23
2019-03-22T23:55:41.584Z,102328.39
